createdAt,value
2022-11-24T00:01:13.448Z,79.40
2022-11-24T00:03:41.356Z,79.67
2022-11-24T00:06:10.979Z,79.64
2022-11-24T00:08:41.428Z,79.41
2022-11-24T00:11:11.248Z,79.76
2022-11-24T00:13:40.196Z,79.90
2022-11-24T00:16:10.235Z,80.09
2022-11-24T00:18:38.500Z,79.75
2022-11-24T00:21:06.713Z,79.74
2022-11-24T00:23:35.002Z,79.93
2022-11-24T00:26:09.836Z,79.83
2022-11-24T00:28:39.011Z,79.70
2022-11-24T00:31:17.539Z,79.56
2022-11-24T00:33:46.206Z,79.84
2022-11-24T00:36:14.129Z,79.70
2022-11-24T00:38:42.048Z,79.57
2022-11-24T00:41:11.475Z,79.51
2022-11-24T00:43:39.716Z,79.46
2022-11-24T00:46:07.916Z,79.46
2022-11-24T00:48:36.169Z,79.46
2022-11-24T00:51:06.187Z,79.44
2022-11-24T00:53:34.027Z,79.64
2022-11-24T00:56:04.013Z,79.42
2022-11-24T00:58:35.137Z,79.33
2022-11-24T01:01:04.871Z,79.14
2022-11-24T01:03:33.522Z,79.56
2022-11-24T01:06:04.989Z,79.44
2022-11-24T01:08:33.113Z,79.39
2022-11-24T01:11:12.164Z,79.92
2022-11-24T01:13:42.107Z,79.76
2022-11-24T01:16:15.690Z,79.65
2022-11-24T01:18:43.658Z,79.42
2022-11-24T01:21:11.465Z,79.33
2022-11-24T01:23:39.873Z,79.43
2022-11-24T01:26:08.526Z,78.77
2022-11-24T01:28:38.560Z,78.72
2022-11-24T01:31:12.022Z,78.70
2022-11-24T01:33:40.039Z,78.82
2022-11-24T01:36:08.117Z,78.51
2022-11-24T01:38:36.084Z,78.52
2022-11-24T01:41:05.555Z,78.86
2022-11-24T01:43:33.828Z,78.65
2022-11-24T01:46:05.889Z,78.72
2022-11-24T01:48:38.756Z,79.11
2022-11-24T01:51:09.704Z,79.05
2022-11-24T01:53:37.829Z,79.35
2022-11-24T01:56:06.255Z,79.60
2022-11-24T01:58:34.813Z,79.49
2022-11-24T02:01:02.764Z,79.79
2022-11-24T02:03:33.828Z,79.54
2022-11-24T02:06:04.877Z,79.62
2022-11-24T02:08:36.317Z,79.71
2022-11-24T02:11:06.081Z,79.74
2022-11-24T02:13:35.686Z,79.79
2022-11-24T02:16:03.887Z,79.88
2022-11-24T02:18:31.720Z,79.77
2022-11-24T02:21:00.049Z,79.95
2022-11-24T02:23:38.924Z,79.40
2022-11-24T02:26:14.270Z,78.80
2022-11-24T02:28:43.476Z,78.83
2022-11-24T02:31:11.489Z,78.79
2022-11-24T02:33:39.402Z,79.04
2022-11-24T02:36:07.964Z,78.72
2022-11-24T02:38:37.057Z,78.72
2022-11-24T02:41:07.354Z,78.97
2022-11-24T02:43:38.660Z,78.93
2022-11-24T02:46:08.469Z,78.91
2022-11-24T02:48:36.354Z,78.61
2022-11-24T02:51:04.402Z,78.96
2022-11-24T02:53:32.288Z,78.94
2022-11-24T02:56:00.110Z,78.46
2022-11-24T02:58:28.372Z,78.67
2022-11-24T03:00:57.290Z,78.79
2022-11-24T03:03:27.148Z,78.68
2022-11-24T03:05:55.089Z,78.70
2022-11-24T03:08:22.865Z,78.48
2022-11-24T03:10:50.563Z,78.46
2022-11-24T03:13:18.637Z,78.35
2022-11-24T03:15:46.416Z,78.15
2022-11-24T03:18:14.693Z,78.04
2022-11-24T03:20:44.228Z,78.09
2022-11-24T03:23:13.215Z,77.76
2022-11-24T03:25:40.920Z,77.87
2022-11-24T03:28:08.685Z,78.17
2022-11-24T03:30:37.071Z,78.00
2022-11-24T03:33:05.164Z,78.41
2022-11-24T03:35:32.870Z,78.19
2022-11-24T03:38:01.969Z,78.17
2022-11-24T03:40:30.181Z,78.51
2022-11-24T03:42:57.949Z,78.19
2022-11-24T03:48:13.507Z,78.47
2022-11-24T03:50:41.236Z,78.15
2022-11-24T03:53:10.826Z,77.69
2022-11-24T03:55:38.624Z,77.79
2022-11-24T03:58:06.349Z,77.77
2022-11-24T04:00:34.404Z,77.63
2022-11-24T04:03:02.238Z,77.64
2022-11-24T04:05:30.033Z,77.96
2022-11-24T04:07:58.532Z,77.88
2022-11-24T04:10:27.760Z,77.99
2022-11-24T04:12:54.479Z,78.42
2022-11-24T04:15:22.789Z,78.38
2022-11-24T04:17:51.661Z,78.41
2022-11-24T04:20:20.094Z,78.40
2022-11-24T04:22:47.861Z,78.20
2022-11-24T04:25:17.478Z,78.23
2022-11-24T04:27:47.104Z,77.99
2022-11-24T04:30:14.962Z,78.24
2022-11-24T04:32:44.473Z,78.05
2022-11-24T04:35:12.626Z,78.01
2022-11-24T04:37:40.761Z,77.97
2022-11-24T04:40:10.088Z,77.82
2022-11-24T04:42:37.949Z,78.08
2022-11-24T04:45:08.684Z,78.14
2022-11-24T04:47:36.430Z,77.98
2022-11-24T04:50:06.102Z,77.87
2022-11-24T04:52:34.197Z,78.16
2022-11-24T04:55:02.144Z,78.35
2022-11-24T04:57:29.880Z,78.25
2022-11-24T04:59:57.640Z,78.45
2022-11-24T05:02:26.843Z,78.35
2022-11-24T05:04:54.633Z,78.05
2022-11-24T05:07:22.624Z,78.36
2022-11-24T05:10:08.117Z,78.57
2022-11-24T05:12:35.871Z,77.94
2022-11-24T05:15:06.507Z,78.21
2022-11-24T05:17:37.639Z,78.06
2022-11-24T05:20:06.915Z,77.58
2022-11-24T05:22:34.670Z,77.76
2022-11-24T05:25:02.974Z,78.14
2022-11-24T05:27:30.661Z,78.12
2022-11-24T05:29:58.761Z,78.51
2022-11-24T05:32:26.570Z,78.68
2022-11-24T05:34:56.743Z,78.69
2022-11-24T05:37:25.948Z,78.61
2022-11-24T05:39:54.781Z,78.55
2022-11-24T05:42:47.181Z,77.95
2022-11-24T05:45:17.185Z,78.16
2022-11-24T05:47:45.422Z,78.26
2022-11-24T05:50:16.885Z,78.14
2022-11-24T05:52:45.139Z,78.03
2022-11-24T05:55:29.786Z,78.04
2022-11-24T05:58:00.528Z,77.98
2022-11-24T06:00:28.800Z,77.61
2022-11-24T06:02:58.290Z,77.83
2022-11-24T06:05:28.751Z,77.97
2022-11-24T06:07:56.837Z,78.18
2022-11-24T06:10:25.290Z,77.71
2022-11-24T06:12:53.146Z,77.63
2022-11-24T06:15:20.937Z,77.66
2022-11-24T06:17:54.394Z,77.91
2022-11-24T06:20:22.346Z,77.63
2022-11-24T06:22:51.654Z,77.32
2022-11-24T06:25:19.506Z,77.39
2022-11-24T06:27:47.320Z,77.45
2022-11-24T06:30:16.213Z,77.56
2022-11-24T06:32:49.338Z,77.41
2022-11-24T06:35:17.407Z,77.24
2022-11-24T06:37:45.912Z,77.15
2022-11-24T06:40:15.258Z,77.19
2022-11-24T06:42:43.025Z,77.44
2022-11-24T06:45:12.288Z,77.31
2022-11-24T06:47:39.916Z,77.52
2022-11-24T06:50:09.823Z,77.34
2022-11-24T06:52:37.919Z,77.05
2022-11-24T06:55:06.355Z,77.30
2022-11-24T06:57:35.888Z,77.48
2022-11-24T07:00:05.728Z,77.03
2022-11-24T07:02:33.696Z,76.96
2022-11-24T07:05:01.571Z,76.79
2022-11-24T07:07:29.390Z,76.87
2022-11-24T07:09:57.223Z,76.31
2022-11-24T07:12:25.260Z,76.06
2022-11-24T07:14:54.624Z,76.08
2022-11-24T07:17:22.271Z,76.46
2022-11-24T07:19:50.190Z,76.43
2022-11-24T07:22:18.047Z,76.35
2022-11-24T07:24:45.800Z,76.32
2022-11-24T07:27:13.427Z,76.15
2022-11-24T07:29:41.272Z,76.30
2022-11-24T07:32:10.578Z,75.98
2022-11-24T07:34:38.217Z,75.91
2022-11-24T07:37:05.966Z,76.06
2022-11-24T07:39:34.047Z,75.69
2022-11-24T07:42:01.999Z,75.59
2022-11-24T07:44:29.952Z,75.83
2022-11-24T07:46:57.905Z,75.86
2022-11-24T07:49:32.407Z,75.62
2022-11-24T07:52:01.391Z,75.22
2022-11-24T07:54:29.355Z,75.10
2022-11-24T07:56:57.744Z,75.08
2022-11-24T07:59:25.510Z,75.09
2022-11-24T08:01:53.392Z,75.06
2022-11-24T08:04:21.064Z,75.02
2022-11-24T08:06:50.651Z,75.64
2022-11-24T08:09:18.378Z,74.95
2022-11-24T08:11:46.441Z,74.98
2022-11-24T08:14:14.124Z,74.72
2022-11-24T08:16:41.852Z,74.77
2022-11-24T08:19:11.084Z,74.92
2022-11-24T08:21:39.079Z,74.59
2022-11-24T08:24:09.852Z,74.89
2022-11-24T08:26:38.001Z,74.71
2022-11-24T08:29:06.127Z,74.79
2022-11-24T08:31:35.512Z,74.75
2022-11-24T08:34:04.633Z,74.66
2022-11-24T08:36:33.020Z,74.16
2022-11-24T08:39:01.514Z,73.90
2022-11-24T08:41:31.667Z,73.97
2022-11-24T08:43:59.549Z,73.97
2022-11-24T08:46:27.473Z,73.86
2022-11-24T08:48:56.119Z,74.01
2022-11-24T08:51:25.834Z,73.53
2022-11-24T08:53:55.742Z,73.47
2022-11-24T08:56:23.561Z,73.78
2022-11-24T08:58:52.958Z,73.56
2022-11-24T09:01:20.781Z,73.41
2022-11-24T09:03:50.971Z,73.19
2022-11-24T09:06:23.096Z,73.23
2022-11-24T09:08:51.210Z,73.17
2022-11-24T09:11:19.527Z,73.64
2022-11-24T09:13:47.746Z,73.75
2022-11-24T09:16:18.965Z,73.90
2022-11-24T09:18:46.984Z,73.59
2022-11-24T09:21:16.076Z,72.98
2022-11-24T09:23:44.389Z,73.50
2022-11-24T09:26:13.686Z,73.85
2022-11-24T09:28:42.014Z,73.85
2022-11-24T09:31:12.130Z,73.84
2022-11-24T09:33:42.164Z,73.78
2022-11-24T09:36:10.243Z,73.75
2022-11-24T09:38:38.554Z,73.44
2022-11-24T09:41:42.681Z,73.37
2022-11-24T09:44:26.378Z,73.56
2022-11-24T09:46:59.849Z,73.48
2022-11-24T09:49:34.471Z,73.66
2022-11-24T09:52:03.566Z,74.08
2022-11-24T09:54:32.242Z,74.18
2022-11-24T09:57:02.174Z,73.99
2022-11-24T09:59:30.205Z,73.38
2022-11-24T10:01:57.980Z,73.63
2022-11-24T10:04:28.279Z,73.30
2022-11-24T10:07:02.354Z,73.13
2022-11-24T10:09:51.687Z,73.51
2022-11-24T10:12:31.850Z,73.69
2022-11-24T10:15:32.482Z,73.38
2022-11-24T10:18:16.780Z,73.76
2022-11-24T10:20:53.639Z,73.25
2022-11-24T10:23:39.767Z,73.45
2022-11-24T10:26:10.066Z,73.41
2022-11-24T10:28:42.225Z,73.87
2022-11-24T10:31:20.010Z,73.64
2022-11-24T10:33:48.737Z,73.64
2022-11-24T10:36:21.831Z,73.80
2022-11-24T10:38:53.905Z,73.88
2022-11-24T10:41:25.560Z,73.59
2022-11-24T10:43:53.631Z,73.59
2022-11-24T10:46:26.343Z,73.50
2022-11-24T10:48:56.127Z,73.78
2022-11-24T10:51:40.155Z,74.00
2022-11-24T10:54:15.560Z,73.56
2022-11-24T10:56:44.456Z,73.58
2022-11-24T10:59:26.244Z,73.43
2022-11-24T11:01:54.817Z,73.80
2022-11-24T11:04:26.242Z,73.71
2022-11-24T11:06:54.096Z,73.73
2022-11-24T11:09:23.875Z,73.71
2022-11-24T11:11:54.371Z,73.87
2022-11-24T11:14:32.897Z,73.57
2022-11-24T11:17:01.026Z,73.83
2022-11-24T11:19:54.263Z,73.73
2022-11-24T11:22:25.681Z,73.87
2022-11-24T11:25:07.151Z,73.96
2022-11-24T11:27:35.113Z,73.81
2022-11-24T11:36:12.052Z,73.98
2022-11-24T11:38:41.020Z,73.83
2022-11-24T11:41:15.572Z,73.94
2022-11-24T11:43:45.914Z,73.73
2022-11-24T11:46:15.546Z,73.64
2022-11-24T11:48:47.027Z,74.04
2022-11-24T11:51:28.036Z,74.11
2022-11-24T11:53:59.753Z,74.29
2022-11-24T11:56:32.497Z,74.15
2022-11-24T11:59:14.918Z,73.87
2022-11-24T12:02:03.441Z,73.81
2022-11-24T12:04:42.156Z,74.01
2022-11-24T12:07:25.883Z,73.82
2022-11-24T12:10:01.875Z,74.08
2022-11-24T12:12:45.804Z,73.77
2022-11-24T12:15:17.844Z,73.81
2022-11-24T12:17:52.597Z,74.01
2022-11-24T12:20:43.184Z,74.29
2022-11-24T12:23:20.187Z,74.13
2022-11-24T12:25:52.616Z,74.06
2022-11-24T12:28:26.125Z,73.81
2022-11-24T12:31:02.103Z,74.11
2022-11-24T12:33:38.604Z,74.28
2022-11-24T12:36:14.300Z,74.73
2022-11-24T12:38:50.489Z,74.59
2022-11-24T12:41:41.659Z,75.01
2022-11-24T12:44:23.356Z,75.27
2022-11-24T12:47:00.581Z,75.09
2022-11-24T12:49:35.470Z,75.03
2022-11-24T12:52:06.703Z,75.14
2022-11-24T12:54:40.183Z,74.96
2022-11-24T12:57:12.189Z,75.02
2022-11-24T12:59:46.755Z,75.29
2022-11-24T13:02:24.516Z,75.08
2022-11-24T13:04:56.750Z,75.01
2022-11-24T13:07:35.844Z,75.27
2022-11-24T13:13:20.671Z,75.32
2022-11-24T13:16:35.752Z,75.39
2022-11-24T13:19:17.434Z,75.43
2022-11-24T13:22:01.614Z,75.34
2022-11-24T13:24:32.165Z,75.19
2022-11-24T13:27:38.606Z,75.15
2022-11-24T13:30:52.045Z,75.27
2022-11-24T13:33:37.950Z,75.31
2022-11-24T13:36:31.354Z,75.36
2022-11-24T13:38:59.906Z,75.40
2022-11-24T13:42:07.634Z,75.52
2022-11-24T13:44:49.020Z,75.92
2022-11-24T13:47:41.374Z,75.79
2022-11-24T13:50:25.454Z,75.79
2022-11-24T13:53:01.020Z,75.68
2022-11-24T13:55:35.009Z,75.60
2022-11-24T13:58:31.249Z,75.92
2022-11-24T14:01:19.176Z,75.57
2022-11-24T14:07:07.039Z,75.61
2022-11-24T14:09:36.851Z,75.54
2022-11-24T14:12:09.247Z,75.68
2022-11-24T14:14:36.981Z,75.41
2022-11-24T14:17:09.929Z,75.95
2022-11-24T14:19:38.534Z,76.36
2022-11-24T14:22:07.908Z,75.93
2022-11-24T14:24:41.217Z,75.98
2022-11-24T14:27:15.096Z,76.00
2022-11-24T14:29:54.428Z,76.02
2022-11-24T14:32:27.438Z,76.18
2022-11-24T14:34:55.605Z,76.13
2022-11-24T14:37:25.145Z,76.40
2022-11-24T14:39:52.929Z,76.53
2022-11-24T14:42:23.691Z,76.49
2022-11-24T14:44:54.250Z,76.24
2022-11-24T14:47:30.939Z,76.09
2022-11-24T14:50:09.258Z,75.89
2022-11-24T14:52:45.278Z,75.97
2022-11-24T14:55:26.417Z,76.06
2022-11-24T14:57:54.709Z,76.01
2022-11-24T15:00:28.557Z,76.14
2022-11-24T15:02:57.876Z,76.10
2022-11-24T15:05:26.531Z,76.47
2022-11-24T15:08:04.152Z,76.10
2022-11-24T15:10:34.481Z,76.35
2022-11-24T15:13:09.909Z,76.44
2022-11-24T15:15:46.456Z,76.45
2022-11-24T15:18:26.566Z,76.40
2022-11-24T15:21:04.168Z,76.43
2022-11-24T15:23:35.361Z,76.48
2022-11-24T15:26:30.243Z,76.79
2022-11-24T15:29:00.257Z,76.90
2022-11-24T15:31:27.960Z,76.73
2022-11-24T15:34:17.179Z,77.24
2022-11-24T15:36:44.856Z,76.87
2022-11-24T15:39:14.274Z,77.37
2022-11-24T15:41:42.141Z,77.31
2022-11-24T15:44:10.781Z,77.32
2022-11-24T15:46:39.517Z,77.12
2022-11-24T15:49:07.978Z,77.24
2022-11-24T15:51:36.758Z,77.07
2022-11-24T15:54:07.623Z,77.13
2022-11-24T15:56:37.693Z,76.92
2022-11-24T15:59:05.696Z,76.75
2022-11-24T16:01:42.962Z,76.56
2022-11-24T16:04:13.293Z,76.73
2022-11-24T16:06:41.098Z,76.52
2022-11-24T16:09:14.271Z,76.43
2022-11-24T16:11:44.106Z,76.34
2022-11-24T16:14:11.791Z,76.63
2022-11-24T16:16:40.966Z,76.58
2022-11-24T16:19:09.925Z,76.68
2022-11-24T16:21:37.538Z,76.63
2022-11-24T16:24:06.343Z,76.93
2022-11-24T16:26:33.992Z,77.09
2022-11-24T16:29:02.989Z,77.50
2022-11-24T16:31:30.943Z,77.50
2022-11-24T16:33:58.832Z,77.25
2022-11-24T16:36:26.717Z,77.89
2022-11-24T16:38:54.408Z,77.52
2022-11-24T16:41:23.130Z,77.84
2022-11-24T16:43:51.096Z,77.54
2022-11-24T16:46:25.655Z,77.85
2022-11-24T16:48:55.106Z,77.84
2022-11-24T16:51:26.149Z,77.68
2022-11-24T16:53:58.966Z,78.12
2022-11-24T16:56:28.154Z,78.01
2022-11-24T16:59:00.642Z,78.26
2022-11-24T17:01:31.626Z,78.16
2022-11-24T17:03:59.578Z,78.21
2022-11-24T17:06:27.645Z,78.19
2022-11-24T17:08:58.217Z,78.23
2022-11-24T17:11:27.760Z,78.23
2022-11-24T17:13:57.134Z,78.01
2022-11-24T17:16:26.096Z,78.14
2022-11-24T17:18:55.605Z,78.08
2022-11-24T17:21:25.047Z,78.28
2022-11-24T17:23:54.836Z,78.33
2022-11-24T17:26:22.562Z,78.31
2022-11-24T17:28:50.440Z,78.20
2022-11-24T17:31:21.942Z,78.02
2022-11-24T17:33:50.300Z,77.79
2022-11-24T17:36:19.554Z,78.01
2022-11-24T17:38:49.933Z,78.04
2022-11-24T17:41:17.676Z,78.07
2022-11-24T17:43:57.064Z,77.75
2022-11-24T17:46:25.224Z,77.56
2022-11-24T17:48:54.265Z,77.56
2022-11-24T17:51:25.697Z,77.59
2022-11-24T17:53:54.871Z,77.94
2022-11-24T17:56:23.857Z,78.10
2022-11-24T17:58:54.366Z,78.11
2022-11-24T18:01:22.601Z,78.07
2022-11-24T18:03:53.408Z,78.41
2022-11-24T18:06:25.621Z,78.40
2022-11-24T18:09:11.713Z,78.03
2022-11-24T18:11:40.622Z,78.11
2022-11-24T18:14:08.788Z,77.79
2022-11-24T18:16:36.721Z,77.73
2022-11-24T18:19:10.688Z,77.72
2022-11-24T18:21:41.424Z,78.09
2022-11-24T18:24:11.085Z,77.73
2022-11-24T18:26:39.777Z,77.96
2022-11-24T18:29:20.556Z,77.88
2022-11-24T18:31:48.230Z,78.09
2022-11-24T18:34:16.658Z,78.07
2022-11-24T18:36:47.418Z,78.17
2022-11-24T18:39:22.564Z,78.32
2022-11-24T18:41:50.306Z,78.08
2022-11-24T18:44:18.780Z,78.28
2022-11-24T18:46:56.643Z,78.29
2022-11-24T18:49:24.815Z,78.35
2022-11-24T18:51:56.126Z,78.18
2022-11-24T18:54:25.393Z,78.16
2022-11-24T18:56:53.075Z,78.28
2022-11-24T18:59:26.222Z,78.18
2022-11-24T19:01:54.002Z,78.15
2022-11-24T19:04:22.123Z,77.98
2022-11-24T19:06:49.765Z,78.07
2022-11-24T19:09:20.715Z,77.99
2022-11-24T19:11:49.572Z,77.86
2022-11-24T19:14:19.210Z,78.53
2022-11-24T19:16:48.619Z,78.10
2022-11-24T19:19:17.176Z,77.84
2022-11-24T19:21:45.051Z,77.97
2022-11-24T19:24:14.073Z,77.70
2022-11-24T19:26:43.064Z,77.77
2022-11-24T19:29:10.973Z,78.06
2022-11-24T19:31:39.438Z,77.94
2022-11-24T19:34:09.765Z,77.98
2022-11-24T19:36:37.596Z,78.05
2022-11-24T19:39:07.505Z,78.10
2022-11-24T19:41:36.281Z,78.19
2022-11-24T19:44:05.637Z,77.96
2022-11-24T19:46:34.353Z,78.06
2022-11-24T19:49:03.858Z,78.12
2022-11-24T19:51:35.920Z,77.99
2022-11-24T19:54:04.261Z,77.89
2022-11-24T19:56:34.055Z,78.16
2022-11-24T19:59:03.117Z,77.85
2022-11-24T20:01:34.619Z,77.57
2022-11-24T20:04:04.193Z,77.17
2022-11-24T20:06:34.874Z,77.17
2022-11-24T20:09:03.022Z,77.44
2022-11-24T20:11:31.641Z,76.99
2022-11-24T20:14:00.092Z,77.29
2022-11-24T20:16:37.358Z,77.13
2022-11-24T20:19:08.545Z,76.94
2022-11-24T20:21:39.372Z,77.02
2022-11-24T20:24:16.113Z,77.32
2022-11-24T20:26:45.630Z,77.73
2022-11-24T20:29:13.869Z,77.45
2022-11-24T20:31:43.470Z,77.38
2022-11-24T20:34:13.448Z,77.32
2022-11-24T20:36:44.210Z,77.16
2022-11-24T20:39:15.857Z,77.03
2022-11-24T20:41:45.286Z,77.08
2022-11-24T20:44:15.312Z,76.82
2022-11-24T20:46:44.449Z,77.00
2022-11-24T20:49:16.237Z,77.01
2022-11-24T20:51:48.031Z,76.78
2022-11-24T20:54:17.501Z,76.72
2022-11-24T20:56:46.637Z,76.62
2022-11-24T20:59:19.377Z,76.73
2022-11-24T21:01:48.301Z,76.80
2022-11-24T21:04:19.340Z,76.63
2022-11-24T21:06:47.590Z,76.44
2022-11-24T21:09:15.228Z,76.57
2022-11-24T21:11:43.288Z,76.43
2022-11-24T21:14:11.222Z,76.18
2022-11-24T21:16:42.828Z,76.52
2022-11-24T21:19:14.033Z,76.62
2022-11-24T21:21:43.761Z,76.61
2022-11-24T21:24:12.936Z,76.38
2022-11-24T21:26:41.605Z,76.24
2022-11-24T21:29:09.502Z,76.64
2022-11-24T21:31:39.297Z,76.43
2022-11-24T21:34:07.841Z,76.78
2022-11-24T21:36:36.305Z,76.87
2022-11-24T21:39:05.820Z,76.75
2022-11-24T21:41:34.710Z,76.67
2022-11-24T21:44:02.957Z,76.79
2022-11-24T21:46:38.977Z,76.59
2022-11-24T21:49:11.449Z,76.47
2022-11-24T21:51:39.327Z,76.63
2022-11-24T21:54:09.355Z,76.47
2022-11-24T21:56:37.206Z,76.67
2022-11-24T21:59:06.949Z,76.73
2022-11-24T22:01:34.917Z,76.87
2022-11-24T22:04:04.700Z,76.82
2022-11-24T22:06:35.932Z,76.83
2022-11-24T22:09:03.713Z,76.94
2022-11-24T22:11:34.826Z,76.59
2022-11-24T22:14:09.030Z,76.82
2022-11-24T22:16:36.779Z,76.46
2022-11-24T22:19:04.638Z,76.87
2022-11-24T22:21:33.854Z,76.68
2022-11-24T22:24:01.909Z,77.08
2022-11-24T22:26:30.209Z,77.18
2022-11-24T22:28:59.596Z,77.03
2022-11-24T22:31:29.518Z,77.38
2022-11-24T22:33:58.008Z,77.22
2022-11-24T22:36:27.314Z,77.31
2022-11-24T22:38:55.757Z,77.44
2022-11-24T22:41:23.703Z,77.56
2022-11-24T22:43:51.706Z,77.56
2022-11-24T22:46:22.316Z,77.91
2022-11-24T22:48:52.859Z,77.81
2022-11-24T22:51:21.917Z,77.70
2022-11-24T22:53:50.704Z,78.46
2022-11-24T22:56:19.576Z,78.57
2022-11-24T22:58:48.062Z,78.54
2022-11-24T23:01:17.896Z,78.50
2022-11-24T23:03:47.410Z,78.14
2022-11-24T23:06:16.562Z,78.41
2022-11-24T23:08:45.361Z,78.56
2022-11-24T23:11:14.873Z,78.50
2022-11-24T23:13:42.875Z,78.35
2022-11-24T23:16:13.974Z,77.97
2022-11-24T23:18:41.816Z,77.63
2022-11-24T23:21:15.978Z,77.87
2022-11-24T23:23:45.262Z,77.95
2022-11-24T23:26:14.284Z,78.19
2022-11-24T23:28:43.126Z,78.12
2022-11-24T23:31:12.485Z,78.01
2022-11-24T23:33:41.145Z,78.00
2022-11-24T23:36:11.873Z,77.96
2022-11-24T23:38:40.254Z,77.81
2022-11-24T23:41:10.666Z,77.59
2022-11-24T23:43:39.670Z,77.34
2022-11-24T23:46:08.612Z,77.50
2022-11-24T23:48:37.524Z,77.38
2022-11-24T23:51:06.463Z,77.42
2022-11-24T23:53:36.548Z,77.40
2022-11-24T23:56:04.939Z,77.13
2022-11-24T23:58:33.346Z,77.15
